Time;durP1;ratioP1;P1;durP2;ratioP2;P2;SDS_P1;SDS_P2;PMS_P1;PMS_P2;Temp;Humidity;BMP_temperature;BMP_pressure;BME280_temperature;BME280_humidity;BME280_pressure;Samples;Min_cycle;Max_cycle;Signal;HPM_P1;HPM_P2
2021/12/02 00:01:30;;;;;;;7.55;0.70;;;3.50;99.90;;;;;;5008958;28;20034;-82
2021/12/02 00:03:56;;;;;;;7.03;0.60;;;3.50;99.90;;;;;;5010172;28;20487;-82
2021/12/02 00:06:22;;;;;;;7.88;0.50;;;3.50;99.90;;;;;;4992861;28;20042;-82
2021/12/02 00:08:50;;;;;;;5.63;0.45;;;3.60;99.90;;;;;;4992711;28;20058;-83
2021/12/02 00:11:16;;;;;;;13.43;1.27;;;3.50;99.90;;;;;;4992049;28;20065;-83
2021/12/02 00:21:15;;;;;;;12.80;0.80;;;3.50;99.90;;;;;;5025352;28;20030;-82
2021/12/02 00:23:53;;;;;;;9.15;0.45;;;3.60;99.90;;;;;;5008712;28;20034;-83
2021/12/02 00:26:20;;;;;;;7.90;0.40;;;3.50;99.90;;;;;;5025144;28;20034;-83
2021/12/02 00:28:55;;;;;;;7.15;0.60;;;3.50;99.90;;;;;;5007895;28;20038;-83
2021/12/02 00:31:24;;;;;;;8.25;0.50;;;3.60;99.90;;;;;;4972786;28;20037;-82
2021/12/02 00:33:54;;;;;;;2.38;0.35;;;3.60;99.90;;;;;;4972665;28;20060;-82
2021/12/02 00:36:24;;;;;;;7.60;0.60;;;3.60;99.90;;;;;;4972995;28;20031;-82
2021/12/02 00:38:51;;;;;;;9.00;1.10;;;3.70;99.90;;;;;;4972846;28;20035;-83
2021/12/02 00:41:19;;;;;;;8.75;0.40;;;3.80;99.90;;;;;;4972469;28;20038;-83
2021/12/02 00:43:47;;;;;;;4.53;0.40;;;3.80;99.90;;;;;;4972429;28;20035;-82
2021/12/02 00:46:17;;;;;;;6.60;1.88;;;3.80;99.90;;;;;;4972625;28;20039;-83
2021/12/02 00:48:43;;;;;;;6.80;0.40;;;3.70;99.90;;;;;;4978737;28;20031;-83
2021/12/02 00:51:10;;;;;;;7.60;0.60;;;3.70;99.90;;;;;;4980267;28;20097;-82
2021/12/02 00:53:42;;;;;;;6.32;0.40;;;3.60;99.90;;;;;;4991539;28;20467;-83
2021/12/02 00:56:11;;;;;;;4.35;0.47;;;3.60;99.90;;;;;;4991818;28;20077;-82
2021/12/02 00:58:37;;;;;;;7.55;0.70;;;3.60;99.90;;;;;;4991722;28;20042;-82
2021/12/02 01:01:03;;;;;;;5.55;0.30;;;3.50;99.90;;;;;;4991386;28;20058;-82
2021/12/02 01:03:35;;;;;;;6.38;0.30;;;3.60;99.90;;;;;;4991394;28;20030;-82
2021/12/02 01:06:06;;;;;;;6.10;0.40;;;3.60;99.90;;;;;;4991456;28;20482;-82
2021/12/02 01:08:32;;;;;;;;;;;3.60;99.90;;;;;;4975825;28;20026;-83
2021/12/02 01:10:58;;;;;;;10.02;0.50;;;3.60;99.90;;;;;;4993945;28;20296;-84
2021/12/02 01:13:24;;;;;;;4.53;0.30;;;3.50;99.90;;;;;;4991557;28;20038;-84
2021/12/02 01:15:50;;;;;;;9.48;0.63;;;3.40;99.90;;;;;;4991478;28;20038;-84
2021/12/02 01:18:16;;;;;;;5.22;0.82;;;3.30;99.90;;;;;;4991266;28;20045;-85
2021/12/02 01:20:45;;;;;;;7.90;1.30;;;3.20;99.90;;;;;;4991391;28;20026;-85
2021/12/02 01:23:11;;;;;;;3.85;0.20;;;3.10;99.90;;;;;;4991603;28;20038;-86
2021/12/02 01:25:37;;;;;;;2.08;0.20;;;3.10;99.90;;;;;;4991506;28;20065;-85
2021/12/02 01:28:04;;;;;;;3.50;0.20;;;3.10;99.90;;;;;;4991419;28;20030;-85
2021/12/02 01:30:31;;;;;;;2.13;0.20;;;3.10;99.90;;;;;;4991274;28;20030;-85
2021/12/02 01:33:02;;;;;;;5.35;0.50;;;3.00;99.90;;;;;;5007489;28;20096;-84
2021/12/02 01:35:29;;;;;;;4.15;0.20;;;2.90;99.90;;;;;;4991062;28;20035;-84
2021/12/02 01:37:55;;;;;;;2.05;0.15;;;2.80;99.90;;;;;;4991231;28;20097;-83
2021/12/02 01:43:52;;;;;;;5.00;0.30;;;2.60;99.90;;;;;;4968188;29;20058;-82
2021/12/02 01:46:25;;;;;;;3.95;0.10;;;2.60;99.90;;;;;;4936596;29;20039;-82
2021/12/02 01:49:02;;;;;;;1.73;0.17;;;2.50;99.90;;;;;;4952123;29;20031;-82
2021/12/02 01:51:28;;;;;;;2.17;0.43;;;2.50;99.90;;;;;;4968290;29;20043;-82
2021/12/02 01:54:03;;;;;;;3.03;0.10;;;2.50;99.90;;;;;;4936762;29;20035;-82
2021/12/02 01:56:31;;;;;;;2.83;0.03;;;2.40;99.90;;;;;;4952257;29;20488;-82
2021/12/02 01:59:10;;;;;;;1.33;0.20;;;2.30;99.90;;;;;;4952333;29;20130;-83
2021/12/02 02:01:37;;;;;;;2.15;0.10;;;2.30;99.90;;;;;;4952465;29;20027;-82
2021/12/02 02:04:03;;;;;;;4.70;0.30;;;2.40;99.90;;;;;;4952013;29;20039;-82
2021/12/02 02:06:33;;;;;;;5.22;0.70;;;2.40;99.90;;;;;;4952175;29;20042;-82
2021/12/02 02:08:59;;;;;;;3.35;0.40;;;2.40;99.90;;;;;;4984427;28;20035;-83
2021/12/02 02:11:27;;;;;;;3.55;0.40;;;2.40;99.90;;;;;;4951643;29;20047;-82
2021/12/02 02:13:53;;;;;;;3.88;0.50;;;2.40;99.90;;;;;;4951788;29;20066;-82
2021/12/02 02:16:19;;;;;;;2.30;0.32;;;2.40;99.90;;;;;;4952006;29;20039;-82
2021/12/02 02:18:45;;;;;;;7.07;0.38;;;2.50;99.90;;;;;;4951974;29;20042;-84
2021/12/02 02:21:14;;;;;;;3.67;0.40;;;2.60;99.90;;;;;;4951541;29;20035;-83
2021/12/02 02:23:50;;;;;;;5.35;0.57;;;2.70;99.90;;;;;;4935454;29;20037;-83
2021/12/02 02:26:23;;;;;;;3.00;0.40;;;2.80;99.90;;;;;;4951555;29;20050;-82
2021/12/02 02:28:50;;;;;;;2.95;0.50;;;2.80;99.90;;;;;;4951343;29;20097;-82
2021/12/02 02:31:17;;;;;;;6.28;0.35;;;2.90;99.90;;;;;;4951230;29;20214;-82
2021/12/02 02:33:48;;;;;;;4.65;0.40;;;2.80;99.90;;;;;;4935551;29;20035;-82
2021/12/02 02:36:15;;;;;;;4.38;0.73;;;2.70;99.90;;;;;;4951095;29;20070;-83
2021/12/02 02:38:40;;;;;;;3.30;0.30;;;2.60;99.90;;;;;;4951388;29;20395;-82
2021/12/02 02:41:08;;;;;;;3.40;0.30;;;2.60;99.90;;;;;;4966961;29;20051;-83
2021/12/02 02:43:34;;;;;;;1.60;0.20;;;2.50;99.90;;;;;;4986430;28;20046;-83
2021/12/02 02:46:00;;;;;;;4.05;0.32;;;2.40;99.90;;;;;;4970479;28;20030;-84
2021/12/02 02:48:26;;;;;;;5.05;0.30;;;2.50;99.90;;;;;;4986734;28;20038;-83
2021/12/02 02:50:52;;;;;;;2.22;0.30;;;2.50;99.90;;;;;;4964222;29;20090;-83
2021/12/02 02:53:22;;;;;;;3.30;0.30;;;2.40;99.90;;;;;;4967027;29;20043;-83
2021/12/02 02:56:10;;;;;;;3.17;0.40;;;2.40;99.90;;;;;;4966919;28;20090;-83
2021/12/02 03:09:18;;;;;;;1.58;0.30;;;2.70;99.90;;;;;;4966696;29;20102;-83
2021/12/02 03:12:02;;;;;;;3.97;0.40;;;2.70;99.90;;;;;;4966383;29;20411;-83
2021/12/02 03:14:54;;;;;;;3.00;0.40;;;2.70;99.90;;;;;;4983089;28;20198;-83
2021/12/02 03:17:18;;;;;;;;;;;2.80;99.90;;;;;;4966984;29;20134;-83
2021/12/02 03:19:45;;;;;;;2.83;0.45;;;2.80;99.90;;;;;;4966573;29;19910;-83
2021/12/02 03:22:13;;;;;;;4.35;1.15;;;2.80;99.90;;;;;;4982245;28;20047;-82
2021/12/02 03:24:39;;;;;;;3.53;0.40;;;2.80;99.90;;;;;;4966558;29;20123;-83
2021/12/02 03:27:05;;;;;;;1.98;0.20;;;2.80;99.90;;;;;;4950687;29;20060;-83
2021/12/02 03:29:31;;;;;;;1.90;0.28;;;2.90;99.90;;;;;;4966537;28;20038;-83
2021/12/02 03:31:57;;;;;;;3.08;0.30;;;2.90;99.90;;;;;;4966152;29;20047;-83
2021/12/02 03:34:23;;;;;;;1.50;0.20;;;2.80;99.90;;;;;;4950102;29;20043;-83
2021/12/02 03:36:48;;;;;;;1.92;0.20;;;2.80;99.90;;;;;;4950233;29;20039;-83
2021/12/02 03:39:14;;;;;;;5.25;0.20;;;2.80;99.90;;;;;;4982631;28;20046;-83
2021/12/02 03:41:40;;;;;;;2.78;0.20;;;2.80;99.90;;;;;;4950008;29;20067;-82
2021/12/02 03:44:06;;;;;;;4.43;0.20;;;2.90;99.90;;;;;;4934782;29;20095;-83
2021/12/02 03:46:32;;;;;;;3.45;0.20;;;2.80;99.90;;;;;;4951854;29;20071;-83
2021/12/02 03:48:59;;;;;;;3.25;0.20;;;2.80;99.90;;;;;;4934459;29;20035;-83
2021/12/02 03:51:26;;;;;;;3.20;0.20;;;2.90;99.90;;;;;;4943203;29;20042;-83
2021/12/02 03:53:52;;;;;;;5.13;0.30;;;2.80;99.90;;;;;;4966218;29;20082;-83
2021/12/02 03:56:18;;;;;;;1.95;0.13;;;2.80;99.90;;;;;;4950524;29;20039;-83
2021/12/02 03:58:46;;;;;;;3.67;0.30;;;2.80;99.90;;;;;;4950592;29;20047;-83
2021/12/02 04:01:13;;;;;;;1.92;0.10;;;2.80;99.90;;;;;;4950249;29;20060;-83
2021/12/02 04:03:39;;;;;;;1.90;0.10;;;2.70;99.90;;;;;;4934030;29;20031;-83
2021/12/02 04:06:07;;;;;;;0.57;0.00;;;2.60;99.90;;;;;;4950270;29;20031;-82
2021/12/02 04:11:35;;;;;;;3.65;0.10;;;2.70;99.90;;;;;;4949866;29;20067;-83
2021/12/02 04:14:09;;;;;;;2.10;0.10;;;2.70;99.90;;;;;;4966691;29;20045;-83
2021/12/02 04:16:39;;;;;;;1.97;0.10;;;2.80;99.90;;;;;;4966180;29;20559;-83
2021/12/02 04:19:06;;;;;;;1.08;0.05;;;2.70;99.90;;;;;;4966139;29;20279;-83
2021/12/02 04:21:32;;;;;;;2.55;0.10;;;2.80;99.90;;;;;;4965989;29;20038;-83
2021/12/02 04:23:58;;;;;;;1.80;0.00;;;2.70;99.90;;;;;;4965819;29;20063;-83
2021/12/02 04:26:23;;;;;;;1.55;0.00;;;2.60;99.90;;;;;;4966255;29;20082;-83
2021/12/02 04:28:49;;;;;;;1.75;0.00;;;2.50;99.90;;;;;;4965951;29;20459;-83
2021/12/02 04:31:15;;;;;;;0.47;0.00;;;2.60;99.90;;;;;;4965857;29;20043;-83
2021/12/02 04:33:40;;;;;;;1.25;0.10;;;2.50;99.90;;;;;;4949886;29;20039;-83
2021/12/02 04:36:06;;;;;;;0.93;0.03;;;2.60;99.90;;;;;;4966204;29;20041;-83
2021/12/02 04:38:33;;;;;;;1.35;0.00;;;2.50;99.90;;;;;;4965896;29;20037;-83
2021/12/02 04:40:58;;;;;;;1.08;0.00;;;2.50;99.90;;;;;;4965612;29;20106;-82
2021/12/02 04:43:24;;;;;;;2.03;0.00;;;2.50;99.90;;;;;;4984001;28;20061;-83
2021/12/02 04:45:50;;;;;;;3.20;0.20;;;2.50;99.90;;;;;;4987103;28;20058;-82
2021/12/02 04:48:16;;;;;;;1.65;0.00;;;2.30;99.90;;;;;;4972543;28;20035;-83
2021/12/02 04:50:44;;;;;;;1.05;0.00;;;2.30;99.90;;;;;;4972578;28;20022;-82
2021/12/02 04:53:10;;;;;;;0.22;0.00;;;2.40;99.90;;;;;;4972172;28;20038;-83
2021/12/02 04:55:36;;;;;;;0.95;0.00;;;2.40;99.90;;;;;;4972463;28;20027;-83
2021/12/02 04:58:02;;;;;;;0.52;0.00;;;2.40;99.90;;;;;;4956286;28;20045;-82
2021/12/02 05:00:28;;;;;;;0.88;0.00;;;2.40;99.90;;;;;;4988603;28;20095;-82
2021/12/02 05:02:53;;;;;;;1.20;0.00;;;2.40;99.90;;;;;;4972136;28;20031;-82
2021/12/02 05:05:19;;;;;;;1.00;0.00;;;2.40;99.90;;;;;;4988444;28;20027;-82
2021/12/02 05:07:45;;;;;;;0.25;0.00;;;2.30;99.90;;;;;;4988234;28;20066;-82
2021/12/02 05:10:12;;;;;;;0.40;0.00;;;2.30;99.90;;;;;;4971712;28;20030;-81
2021/12/02 05:12:37;;;;;;;0.00;0.00;;;2.20;99.90;;;;;;4971993;28;20069;-82
2021/12/02 05:15:03;;;;;;;0.60;0.00;;;2.20;99.90;;;;;;4972283;28;20027;-82
2021/12/02 05:17:29;;;;;;;1.60;0.00;;;2.30;99.90;;;;;;4956061;28;20034;-82
2021/12/02 05:19:55;;;;;;;0.52;0.00;;;2.30;99.90;;;;;;4971889;28;20483;-82
2021/12/02 05:22:20;;;;;;;0.20;0.00;;;2.30;99.90;;;;;;4987903;28;20034;-82
2021/12/02 05:24:46;;;;;;;0.73;0.00;;;2.20;99.90;;;;;;4971666;28;20066;-82
2021/12/02 05:27:13;;;;;;;1.02;0.08;;;2.20;99.90;;;;;;4959715;28;20031;-82
2021/12/02 05:29:40;;;;;;;0.10;0.00;;;2.30;99.90;;;;;;4968467;29;20095;-82
2021/12/02 05:32:05;;;;;;;2.15;0.10;;;2.30;99.90;;;;;;4968102;28;20040;-83
2021/12/02 05:34:33;;;;;;;0.80;0.08;;;2.40;99.90;;;;;;4968211;29;20480;-83
2021/12/02 05:36:58;;;;;;;3.72;0.10;;;2.40;99.90;;;;;;4968363;29;20106;-83
2021/12/02 05:39:24;;;;;;;2.85;0.20;;;2.40;99.90;;;;;;4968255;29;20031;-83
2021/12/02 05:41:53;;;;;;;1.13;0.22;;;2.50;99.90;;;;;;4967350;28;20058;-83
2021/12/02 05:44:20;;;;;;;0.95;0.20;;;2.50;99.90;;;;;;4952287;29;20038;-83
2021/12/02 05:46:45;;;;;;;3.50;0.30;;;2.60;99.90;;;;;;4968418;29;20031;-83
2021/12/02 05:49:11;;;;;;;1.30;0.20;;;2.70;99.90;;;;;;4952300;29;20090;-83
2021/12/02 05:51:36;;;;;;;1.42;0.20;;;2.70;99.90;;;;;;4964083;28;20043;-83
2021/12/02 05:54:02;;;;;;;3.10;0.30;;;2.70;99.90;;;;;;4971540;28;20027;-83
2021/12/02 05:56:28;;;;;;;1.42;0.20;;;2.70;99.90;;;;;;4970703;28;20050;-84
2021/12/02 05:58:53;;;;;;;2.72;0.20;;;2.70;99.90;;;;;;4971268;28;20041;-83
2021/12/02 06:01:19;;;;;;;3.03;0.15;;;2.70;99.90;;;;;;4987395;28;20434;-83
2021/12/02 06:03:44;;;;;;;2.25;0.20;;;2.80;99.90;;;;;;4971198;28;20035;-84
2021/12/02 06:06:10;;;;;;;0.75;0.10;;;2.70;99.90;;;;;;4971315;28;20031;-83
2021/12/02 06:08:37;;;;;;;0.52;0.10;;;2.70;99.90;;;;;;4971279;28;20067;-84
2021/12/02 06:11:02;;;;;;;0.85;0.10;;;2.70;99.90;;;;;;4967266;29;20035;-85
2021/12/02 06:13:28;;;;;;;3.45;0.10;;;2.70;99.90;;;;;;4951878;29;20071;-85
2021/12/02 06:16:11;;;;;;;1.63;0.20;;;2.60;99.90;;;;;;4951918;29;20027;-84
2021/12/02 06:18:39;;;;;;;2.75;0.20;;;2.60;99.90;;;;;;4952237;29;20023;-85
2021/12/02 06:21:05;;;;;;;2.78;0.30;;;2.60;99.90;;;;;;4951883;29;20046;-86
2021/12/02 06:23:31;;;;;;;2.53;0.40;;;2.60;99.90;;;;;;4952001;29;20074;-85
2021/12/02 06:25:56;;;;;;;2.63;0.50;;;2.50;99.90;;;;;;4951404;29;20039;-87
2021/12/02 06:28:22;;;;;;;2.20;0.40;;;2.40;99.90;;;;;;4951887;29;20031;-85
2021/12/02 06:30:47;;;;;;;2.10;0.30;;;2.40;99.90;;;;;;4951612;29;20098;-85
2021/12/02 06:33:14;;;;;;;1.85;0.20;;;2.20;99.90;;;;;;4951711;29;20066;-86
2021/12/02 06:35:40;;;;;;;1.92;0.20;;;2.20;99.90;;;;;;4951618;29;20031;-85
2021/12/02 06:38:07;;;;;;;2.85;0.20;;;2.20;99.90;;;;;;4967652;29;20046;-86
2021/12/02 06:40:34;;;;;;;0.50;0.17;;;2.10;99.90;;;;;;4950958;29;20053;-84
2021/12/02 06:43:01;;;;;;;4.95;0.40;;;2.00;99.90;;;;;;4951077;29;20109;-85
2021/12/02 06:45:27;;;;;;;2.55;0.20;;;1.90;99.90;;;;;;4967326;29;20039;-84
2021/12/02 06:47:57;;;;;;;1.15;0.30;;;1.90;99.90;;;;;;4968414;29;20103;-85
2021/12/02 06:50:23;;;;;;;;;;;1.70;99.90;;;;;;4969490;28;20042;-85
2021/12/02 06:52:50;;;;;;;1.33;0.10;;;1.70;99.90;;;;;;4954124;28;19922;-86
2021/12/02 06:55:17;;;;;;;2.15;0.20;;;1.80;99.90;;;;;;4953786;28;20026;-85
2021/12/02 06:57:43;;;;;;;1.67;0.38;;;1.80;99.90;;;;;;4970393;28;20113;-84
2021/12/02 07:00:13;;;;;;;0.60;0.10;;;1.90;99.90;;;;;;4954213;28;20059;-83
2021/12/02 07:02:40;;;;;;;1.38;0.20;;;1.90;99.90;;;;;;4953953;28;20035;-84
2021/12/02 07:05:08;;;;;;;0.38;0.10;;;1.90;99.90;;;;;;4986500;28;20480;-86
2021/12/02 07:07:36;;;;;;;0.88;0.10;;;2.00;99.90;;;;;;4954156;28;20031;-85
2021/12/02 07:10:09;;;;;;;0.50;0.10;;;2.00;99.90;;;;;;4981705;28;20178;-85
2021/12/02 07:12:38;;;;;;;0.40;0.10;;;2.10;99.90;;;;;;4967690;28;20050;-86
2021/12/02 07:15:08;;;;;;;0.75;0.10;;;2.10;99.90;;;;;;4950960;29;20031;-85
2021/12/02 07:17:34;;;;;;;3.15;0.30;;;2.00;99.90;;;;;;4950693;29;20042;-85
2021/12/02 07:20:02;;;;;;;2.28;0.30;;;2.00;99.90;;;;;;4950662;29;20031;-84
2021/12/02 07:22:27;;;;;;;1.83;0.20;;;1.90;99.90;;;;;;4950375;29;20032;-84
2021/12/02 07:24:53;;;;;;;1.42;0.20;;;1.90;99.90;;;;;;4966309;29;20150;-86
2021/12/02 07:27:19;;;;;;;2.67;0.45;;;1.80;99.90;;;;;;4950422;29;20058;-84
2021/12/02 07:29:45;;;;;;;2.13;0.30;;;1.80;99.90;;;;;;4950691;29;20035;-83
2021/12/02 07:32:11;;;;;;;2.50;0.30;;;1.80;99.90;;;;;;4966189;29;20043;-84
2021/12/02 07:34:42;;;;;;;4.95;0.40;;;1.70;99.90;;;;;;4950559;29;20028;-84
2021/12/02 07:37:08;;;;;;;3.20;0.30;;;1.70;99.90;;;;;;4950254;29;20031;-83
2021/12/02 07:39:34;;;;;;;1.63;0.30;;;1.60;99.90;;;;;;4949477;29;20464;-83
2021/12/02 07:41:59;;;;;;;2.38;0.30;;;1.60;99.90;;;;;;4949294;29;20059;-83
2021/12/02 07:44:26;;;;;;;2.17;0.20;;;1.50;99.90;;;;;;4949736;29;20046;-84
2021/12/02 07:46:51;;;;;;;1.88;0.45;;;1.60;99.90;;;;;;4949662;29;20039;-83
2021/12/02 07:49:17;;;;;;;1.83;0.20;;;1.60;99.90;;;;;;4949551;29;20054;-84
2021/12/02 07:51:44;;;;;;;1.50;0.20;;;1.60;99.90;;;;;;4968204;28;20047;-83
2021/12/02 07:54:12;;;;;;;3.38;0.22;;;1.60;99.90;;;;;;4952665;28;20105;-83
2021/12/02 07:56:38;;;;;;;2.85;0.30;;;1.60;99.90;;;;;;4952267;28;20072;-84
2021/12/02 07:59:05;;;;;;;1.40;0.30;;;1.60;99.90;;;;;;4968844;28;20034;-84
2021/12/02 08:01:34;;;;;;;2.85;0.30;;;1.70;99.90;;;;;;4952359;28;20102;-83
2021/12/02 08:04:01;;;;;;;3.75;0.20;;;1.70;99.90;;;;;;4968505;28;20031;-84
2021/12/02 08:06:27;;;;;;;4.10;0.40;;;1.70;99.90;;;;;;4952834;28;20038;-83
2021/12/02 08:08:53;;;;;;;1.73;0.30;;;1.90;99.90;;;;;;4968566;28;20043;-82
2021/12/02 08:11:19;;;;;;;5.63;0.40;;;1.80;99.90;;;;;;4964683;29;20035;-84
2021/12/02 08:13:50;;;;;;;1.92;0.20;;;1.80;99.90;;;;;;4933264;29;20098;-84
2021/12/02 08:16:16;;;;;;;2.67;0.40;;;1.80;99.90;;;;;;4933363;29;20035;-83
2021/12/02 08:18:41;;;;;;;3.03;0.40;;;1.80;99.90;;;;;;4933549;29;20047;-83
2021/12/02 08:21:07;;;;;;;3.15;0.50;;;1.70;99.90;;;;;;4935876;29;20058;-83
2021/12/02 08:23:33;;;;;;;3.92;0.45;;;1.70;99.90;;;;;;4937210;29;20492;-84
2021/12/02 08:25:58;;;;;;;3.47;0.50;;;1.70;99.90;;;;;;4936842;29;20038;-84
2021/12/02 08:28:24;;;;;;;4.68;0.50;;;1.80;99.90;;;;;;4937008;29;20123;-84
2021/12/02 08:30:50;;;;;;;5.28;0.43;;;1.90;99.90;;;;;;4936954;29;20039;-83
2021/12/02 08:33:19;;;;;;;4.32;0.60;;;1.90;99.90;;;;;;4937106;29;20094;-83
2021/12/02 08:35:45;;;;;;;3.92;0.60;;;1.90;99.90;;;;;;4937124;29;20031;-84
2021/12/02 08:38:13;;;;;;;3.38;0.52;;;2.00;99.90;;;;;;4937019;29;20120;-83
2021/12/02 08:40:40;;;;;;;3.75;0.60;;;2.20;99.90;;;;;;4936427;29;20054;-83
2021/12/02 08:43:12;;;;;;;4.22;0.60;;;2.30;99.90;;;;;;4936406;29;20051;-83
2021/12/02 08:45:39;;;;;;;3.63;0.50;;;2.40;99.90;;;;;;4970172;29;20090;-85
2021/12/02 08:48:06;;;;;;;1.70;0.40;;;2.50;99.90;;;;;;4952757;29;20032;-78
2021/12/02 08:50:33;;;;;;;3.72;0.57;;;2.50;99.90;;;;;;4969669;29;20039;-78
2021/12/02 08:53:00;;;;;;;3.35;0.60;;;2.60;99.90;;;;;;4968816;28;20137;-79
2021/12/02 08:55:27;;;;;;;3.50;0.93;;;2.70;99.90;;;;;;4955383;28;20431;-78
2021/12/02 08:57:53;;;;;;;3.08;0.60;;;2.80;99.90;;;;;;4981444;28;20059;-78
2021/12/02 09:00:26;;;;;;;4.03;0.70;;;3.00;99.90;;;;;;4968527;29;20046;-78
2021/12/02 09:02:53;;;;;;;4.72;0.90;;;3.20;99.90;;;;;;4983051;28;20109;-78
2021/12/02 09:05:19;;;;;;;6.53;1.10;;;3.20;99.90;;;;;;4986580;28;20034;-78
2021/12/02 09:07:45;;;;;;;5.00;1.00;;;3.00;99.90;;;;;;4973067;28;20035;-77
2021/12/02 09:10:12;;;;;;;6.32;1.30;;;2.90;99.90;;;;;;4977113;28;20058;-78
2021/12/02 09:12:38;;;;;;;3.55;0.65;;;2.90;99.90;;;;;;4986629;28;20050;-78
2021/12/02 09:15:08;;;;;;;3.38;0.77;;;2.70;99.90;;;;;;4988575;28;20058;-78
2021/12/02 09:17:34;;;;;;;2.95;0.93;;;2.60;99.90;;;;;;4987228;28;20034;-79
2021/12/02 09:20:00;;;;;;;5.13;1.27;;;2.60;99.90;;;;;;4987508;28;20537;-78
2021/12/02 09:22:26;;;;;;;2.78;0.73;;;2.60;99.90;;;;;;4986851;28;20098;-79
2021/12/02 09:24:51;;;;;;;5.22;0.65;;;2.60;99.90;;;;;;4986951;28;20034;-78
2021/12/02 09:27:19;;;;;;;3.47;0.70;;;2.60;99.90;;;;;;4986663;28;20063;-78
2021/12/02 09:29:44;;;;;;;4.55;0.85;;;2.60;99.90;;;;;;4986828;28;20041;-78
2021/12/02 09:32:11;;;;;;;2.65;0.60;;;2.60;99.90;;;;;;4953703;28;20110;-77
2021/12/02 09:34:37;;;;;;;5.40;0.60;;;2.60;99.90;;;;;;4953979;28;20041;-78
2021/12/02 09:37:03;;;;;;;4.45;0.70;;;2.60;99.90;;;;;;4970661;28;20034;-78
2021/12/02 09:39:34;;;;;;;4.30;0.70;;;2.60;99.90;;;;;;4954435;28;20039;-78
2021/12/02 09:42:01;;;;;;;2.85;0.70;;;2.70;99.90;;;;;;4986439;28;20059;-78
2021/12/02 09:44:29;;;;;;;2.55;0.57;;;2.80;99.90;;;;;;4986676;28;20027;-78
2021/12/02 09:46:55;;;;;;;8.23;0.80;;;2.80;99.90;;;;;;4970524;28;20034;-78
2021/12/02 09:49:23;;;;;;;5.82;0.50;;;2.90;99.90;;;;;;4986815;28;20031;-77
2021/12/02 09:54:22;;;;;;;2.15;0.55;;;3.10;99.90;;;;;;4987488;28;20030;-78
2021/12/02 09:56:51;;;;;;;;;;;2.90;99.90;;;;;;4970999;28;20125;-78
2021/12/02 09:59:28;;;;;;;3.25;0.57;;;3.00;99.90;;;;;;4989179;28;20266;-77
2021/12/02 10:02:00;;;;;;;2.95;0.50;;;3.00;99.90;;;;;;4972283;28;20035;-78
2021/12/02 10:04:27;;;;;;;4.72;0.60;;;3.00;99.90;;;;;;4955878;28;20037;-77
2021/12/02 10:07:09;;;;;;;1.65;0.50;;;3.00;99.90;;;;;;4970361;28;20031;-78
2021/12/02 10:09:50;;;;;;;2.97;0.68;;;3.10;99.90;;;;;;4953699;28;20038;-79
2021/12/02 10:12:19;;;;;;;5.53;0.60;;;3.10;99.90;;;;;;4986068;28;20042;-78
2021/12/02 10:14:53;;;;;;;3.10;0.47;;;3.00;99.90;;;;;;4986031;28;20042;-77
2021/12/02 10:17:52;;;;;;;3.65;0.50;;;3.00;99.90;;;;;;4986198;28;20031;-77
2021/12/02 10:23:21;;;;;;;2.92;0.30;;;2.90;99.90;;;;;;4986807;28;20034;-78
2021/12/02 10:25:58;;;;;;;2.08;0.30;;;3.00;99.90;;;;;;4986203;28;20068;-78
2021/12/02 10:28:29;;;;;;;2.50;0.32;;;3.00;99.90;;;;;;4985998;28;20053;-78
2021/12/02 10:31:00;;;;;;;2.45;0.30;;;3.00;99.90;;;;;;4985518;28;20070;-78
2021/12/02 10:33:40;;;;;;;1.27;0.30;;;3.00;99.90;;;;;;4985658;28;20049;-78
2021/12/02 10:36:25;;;;;;;1.05;0.22;;;3.00;99.90;;;;;;4985837;28;20062;-78
2021/12/02 10:38:52;;;;;;;1.50;0.40;;;3.00;99.90;;;;;;4986799;28;20046;-78
2021/12/02 10:41:28;;;;;;;1.80;0.20;;;3.20;99.90;;;;;;4986450;28;20022;-77
2021/12/02 10:44:08;;;;;;;0.65;0.20;;;3.20;99.90;;;;;;4985438;28;20066;-78
2021/12/02 10:46:50;;;;;;;4.25;0.45;;;3.50;99.90;;;;;;4985651;28;20495;-78
2021/12/02 10:49:16;;;;;;;1.52;0.20;;;3.50;99.90;;;;;;4986939;28;20035;-78
2021/12/02 10:51:44;;;;;;;0.73;0.20;;;3.50;99.90;;;;;;4986459;28;20062;-78
2021/12/02 10:54:13;;;;;;;0.98;0.20;;;3.60;99.90;;;;;;4969003;28;20191;-77
2021/12/02 10:56:42;;;;;;;0.98;0.10;;;3.40;99.90;;;;;;4986255;28;20089;-78
2021/12/02 10:59:39;;;;;;;1.70;0.20;;;3.10;99.90;;;;;;4985332;23;20045;-78
2021/12/02 11:02:26;;;;;;;1.77;0.25;;;2.80;99.90;;;;;;4987216;28;20501;-80
2021/12/02 11:05:00;;;;;;;1.17;0.30;;;2.80;99.90;;;;;;5005124;28;20033;-78
2021/12/02 11:07:39;;;;;;;4.60;0.25;;;2.90;99.90;;;;;;5007132;28;20034;-78
2021/12/02 11:10:09;;;;;;;1.23;0.30;;;2.90;99.90;;;;;;4988016;28;20034;-78
2021/12/02 11:12:40;;;;;;;1.15;0.20;;;3.00;99.90;;;;;;5023472;28;20076;-78
2021/12/02 11:15:10;;;;;;;2.30;0.30;;;3.20;99.90;;;;;;5003320;28;20105;-78
2021/12/02 11:17:54;;;;;;;1.15;0.30;;;3.40;99.90;;;;;;4991328;28;20056;-78
2021/12/02 11:20:36;;;;;;;1.00;0.20;;;3.50;99.90;;;;;;4988791;28;20041;-78
2021/12/02 11:23:15;;;;;;;1.45;0.30;;;3.50;99.90;;;;;;5024487;28;20029;-78
2021/12/02 11:25:56;;;;;;;2.20;0.30;;;3.60;99.90;;;;;;5004500;28;20030;-78
2021/12/02 11:28:24;;;;;;;1.45;0.40;;;3.50;99.90;;;;;;5007093;28;20049;-78
2021/12/02 11:30:50;;;;;;;1.10;0.22;;;3.60;99.90;;;;;;4990541;28;20695;-78
2021/12/02 11:33:19;;;;;;;1.52;0.20;;;3.70;99.90;;;;;;4987343;28;20038;-79
2021/12/02 11:35:47;;;;;;;0.70;0.20;;;3.60;99.90;;;;;;4989986;28;20496;-77
2021/12/02 11:38:21;;;;;;;2.17;0.30;;;3.70;99.90;;;;;;4990150;28;20339;-78
2021/12/02 11:40:56;;;;;;;1.80;0.30;;;3.70;99.90;;;;;;4989821;28;20042;-78
2021/12/02 11:43:25;;;;;;;1.50;0.30;;;3.70;99.90;;;;;;4992595;28;20133;-78
2021/12/02 11:45:54;;;;;;;2.03;0.20;;;3.70;99.90;;;;;;4988753;28;20046;-78
2021/12/02 11:48:29;;;;;;;2.17;0.30;;;3.70;99.90;;;;;;4989965;28;20034;-77
2021/12/02 11:50:59;;;;;;;3.22;0.38;;;3.70;99.90;;;;;;4990012;28;20048;-78
2021/12/02 11:53:25;;;;;;;2.03;0.20;;;3.70;99.90;;;;;;5024012;28;20034;-78
2021/12/02 11:56:01;;;;;;;1.90;0.22;;;3.80;99.90;;;;;;5023144;28;20041;-78
2021/12/02 11:58:27;;;;;;;1.45;0.20;;;4.00;99.90;;;;;;4980388;28;20312;-78
2021/12/02 12:00:54;;;;;;;1.58;0.30;;;4.00;99.90;;;;;;5006297;28;20410;-78
2021/12/02 12:03:42;;;;;;;2.35;0.30;;;4.10;99.90;;;;;;5006088;28;20033;-78
2021/12/02 12:06:13;;;;;;;1.33;0.30;;;4.10;99.90;;;;;;5001734;28;20034;-77
2021/12/02 12:08:41;;;;;;;0.93;0.20;;;4.10;99.90;;;;;;5005061;28;20038;-78
2021/12/02 12:11:26;;;;;;;2.25;0.30;;;4.00;99.90;;;;;;4971915;28;20065;-78
2021/12/02 12:13:55;;;;;;;2.22;0.20;;;4.00;99.90;;;;;;5001024;28;20080;-78
2021/12/02 12:16:23;;;;;;;0.57;0.17;;;4.10;99.90;;;;;;5005953;28;20092;-78
2021/12/02 12:18:50;;;;;;;0.88;0.20;;;4.10;99.90;;;;;;4988374;28;20101;-77
2021/12/02 12:21:15;;;;;;;1.60;0.30;;;4.20;99.90;;;;;;5005859;28;20101;-78
2021/12/02 12:24:08;;;;;;;2.63;0.40;;;4.20;99.90;;;;;;4989402;28;20052;-78
2021/12/02 12:26:40;;;;;;;0.95;0.20;;;4.30;99.90;;;;;;4979415;28;20542;-78
2021/12/02 12:29:06;;;;;;;1.58;0.30;;;4.30;99.90;;;;;;5004677;28;20034;-79
2021/12/02 12:31:38;;;;;;;1.38;0.20;;;4.40;99.90;;;;;;5014621;28;20180;-78
2021/12/02 12:34:52;;;;;;;1.70;0.75;;;4.40;99.90;;;;;;4987218;28;20038;-78
2021/12/02 12:38:03;;;;;;;4.32;0.40;;;4.30;99.90;;;;;;4986932;28;20101;-78
2021/12/02 12:40:40;;;;;;;3.00;0.80;;;4.10;99.90;;;;;;4994557;28;20498;-78
2021/12/02 12:43:08;;;;;;;3.05;0.30;;;4.20;99.90;;;;;;4928987;29;20104;-78
2021/12/02 12:45:41;;;;;;;1.42;0.20;;;4.50;99.90;;;;;;4929993;29;20043;-78
2021/12/02 12:48:17;;;;;;;1.40;0.20;;;4.50;99.90;;;;;;4928777;29;20108;-78
2021/12/02 12:50:45;;;;;;;0.85;0.03;;;4.50;99.90;;;;;;4928746;29;20063;-78
2021/12/02 12:53:15;;;;;;;1.30;0.10;;;4.10;99.90;;;;;;4912430;29;20083;-78
2021/12/02 12:55:52;;;;;;;0.20;0.00;;;3.90;99.90;;;;;;4928563;29;20110;-78
2021/12/02 12:58:23;;;;;;;0.82;0.10;;;3.70;99.90;;;;;;4944274;29;20115;-78
2021/12/02 13:00:55;;;;;;;0.40;0.00;;;3.70;99.90;;;;;;4912691;29;20047;-79
2021/12/02 13:06:20;;;;;;;1.55;0.05;;;3.80;99.90;;;;;;4944566;29;20036;-78
2021/12/02 13:08:53;;;;;;;1.15;0.00;;;3.90;99.90;;;;;;4931659;29;20126;-78
2021/12/02 13:11:26;;;;;;;0.40;0.10;;;4.00;99.90;;;;;;4947482;29;20040;-78
2021/12/02 13:13:54;;;;;;;0.68;0.00;;;4.10;99.90;;;;;;4925448;29;20036;-78
2021/12/02 13:16:22;;;;;;;1.30;0.10;;;4.20;99.90;;;;;;4946589;29;20221;-79
2021/12/02 13:18:55;;;;;;;0.30;0.05;;;4.40;99.90;;;;;;4947460;29;20540;-78
2021/12/02 13:21:33;;;;;;;0.50;0.00;;;4.30;99.90;;;;;;5009708;28;20504;-77
2021/12/02 13:24:18;;;;;;;0.73;0.10;;;4.10;99.90;;;;;;4993748;28;20044;-78
2021/12/02 13:26:52;;;;;;;0.20;0.00;;;4.00;99.90;;;;;;4993483;28;20522;-79
2021/12/02 13:29:37;;;;;;;0.82;0.10;;;3.90;99.90;;;;;;5009998;28;20033;-79
2021/12/02 13:32:10;;;;;;;1.23;0.00;;;3.90;99.90;;;;;;4993181;28;20049;-78
2021/12/02 13:34:37;;;;;;;0.73;0.10;;;3.80;99.90;;;;;;5016870;23;20192;-80
2021/12/02 13:37:08;;;;;;;1.05;0.10;;;3.90;99.90;;;;;;4993524;28;20042;-78
2021/12/02 13:39:39;;;;;;;0.77;0.10;;;3.80;99.90;;;;;;4993844;28;20048;-78
2021/12/02 13:42:11;;;;;;;1.83;0.10;;;3.80;99.90;;;;;;4993222;28;20093;-78